sensor_id;sensor_type;location;lat;lon;timestamp;P1;durP1;ratioP1;P2;durP2;ratioP2
7929;SDS011;4010;42.698;23.124;2022-10-29T00:00:00;3.50;;;2.70;;
7929;SDS011;4010;42.698;23.124;2022-10-29T00:02:26;2.67;;;1.97;;
7929;SDS011;4010;42.698;23.124;2022-10-29T00:04:53;4.60;;;2.10;;
7929;SDS011;4010;42.698;23.124;2022-10-29T00:07:21;2.63;;;2.13;;
7929;SDS011;4010;42.698;23.124;2022-10-29T00:09:48;3.67;;;2.50;;
7929;SDS011;4010;42.698;23.124;2022-10-29T00:12:14;3.10;;;2.07;;
7929;SDS011;4010;42.698;23.124;2022-10-29T00:14:41;3.03;;;2.17;;
7929;SDS011;4010;42.698;23.124;2022-10-29T00:17:08;2.73;;;2.20;;
7929;SDS011;4010;42.698;23.124;2022-10-29T00:19:34;3.93;;;2.13;;
7929;SDS011;4010;42.698;23.124;2022-10-29T00:22:01;2.63;;;2.07;;
7929;SDS011;4010;42.698;23.124;2022-10-29T00:24:29;3.00;;;2.00;;
7929;SDS011;4010;42.698;23.124;2022-10-29T00:26:56;2.33;;;2.13;;
7929;SDS011;4010;42.698;23.124;2022-10-29T00:29:22;2.43;;;2.13;;
7929;SDS011;4010;42.698;23.124;2022-10-29T00:31:49;2.73;;;2.30;;
7929;SDS011;4010;42.698;23.124;2022-10-29T00:34:16;4.30;;;2.27;;
7929;SDS011;4010;42.698;23.124;2022-10-29T00:36:42;5.37;;;2.50;;
7929;SDS011;4010;42.698;23.124;2022-10-29T00:39:11;3.30;;;2.40;;
7929;SDS011;4010;42.698;23.124;2022-10-29T00:41:41;2.30;;;1.90;;
7929;SDS011;4010;42.698;23.124;2022-10-29T00:44:23;3.53;;;2.37;;
7929;SDS011;4010;42.698;23.124;2022-10-29T00:46:55;2.13;;;1.93;;
7929;SDS011;4010;42.698;23.124;2022-10-29T00:49:24;2.30;;;1.97;;
7929;SDS011;4010;42.698;23.124;2022-10-29T00:51:52;3.63;;;2.43;;
7929;SDS011;4010;42.698;23.124;2022-10-29T00:54:19;4.23;;;2.40;;
7929;SDS011;4010;42.698;23.124;2022-10-29T00:56:48;3.13;;;2.10;;
7929;SDS011;4010;42.698;23.124;2022-10-29T00:59:17;2.60;;;2.37;;
7929;SDS011;4010;42.698;23.124;2022-10-29T01:01:44;4.37;;;2.10;;
7929;SDS011;4010;42.698;23.124;2022-10-29T01:04:13;2.80;;;2.30;;
7929;SDS011;4010;42.698;23.124;2022-10-29T01:06:41;2.80;;;2.03;;
7929;SDS011;4010;42.698;23.124;2022-10-29T01:09:11;4.10;;;2.70;;
7929;SDS011;4010;42.698;23.124;2022-10-29T01:11:40;3.33;;;1.93;;
7929;SDS011;4010;42.698;23.124;2022-10-29T01:14:17;2.83;;;2.20;;
7929;SDS011;4010;42.698;23.124;2022-10-29T01:16:52;3.37;;;2.90;;
7929;SDS011;4010;42.698;23.124;2022-10-29T01:19:32;2.67;;;2.13;;
7929;SDS011;4010;42.698;23.124;2022-10-29T01:22:27;6.37;;;2.27;;
7929;SDS011;4010;42.698;23.124;2022-10-29T01:25:05;3.13;;;1.77;;
7929;SDS011;4010;42.698;23.124;2022-10-29T01:27:54;3.70;;;2.23;;
7929;SDS011;4010;42.698;23.124;2022-10-29T01:30:36;4.63;;;2.60;;
7929;SDS011;4010;42.698;23.124;2022-10-29T01:33:23;2.53;;;2.30;;
7929;SDS011;4010;42.698;23.124;2022-10-29T01:35:57;3.90;;;2.50;;
7929;SDS011;4010;42.698;23.124;2022-10-29T01:38:33;2.97;;;2.43;;
7929;SDS011;4010;42.698;23.124;2022-10-29T01:41:06;2.60;;;2.40;;
7929;SDS011;4010;42.698;23.124;2022-10-29T01:43:41;3.07;;;2.40;;
7929;SDS011;4010;42.698;23.124;2022-10-29T01:46:13;3.63;;;2.30;;
7929;SDS011;4010;42.698;23.124;2022-10-29T01:48:45;5.50;;;2.30;;
7929;SDS011;4010;42.698;23.124;2022-10-29T01:51:17;3.03;;;1.93;;
7929;SDS011;4010;42.698;23.124;2022-10-29T01:53:46;2.43;;;2.10;;
7929;SDS011;4010;42.698;23.124;2022-10-29T01:56:14;2.60;;;2.20;;
7929;SDS011;4010;42.698;23.124;2022-10-29T01:58:41;3.73;;;2.07;;
7929;SDS011;4010;42.698;23.124;2022-10-29T02:01:16;3.07;;;1.93;;
7929;SDS011;4010;42.698;23.124;2022-10-29T02:03:55;2.53;;;2.00;;
7929;SDS011;4010;42.698;23.124;2022-10-29T02:06:32;2.60;;;1.97;;
7929;SDS011;4010;42.698;23.124;2022-10-29T02:09:07;2.87;;;2.17;;
7929;SDS011;4010;42.698;23.124;2022-10-29T02:11:42;3.67;;;2.10;;
7929;SDS011;4010;42.698;23.124;2022-10-29T02:14:16;2.83;;;2.13;;
7929;SDS011;4010;42.698;23.124;2022-10-29T02:16:48;3.83;;;2.47;;
7929;SDS011;4010;42.698;23.124;2022-10-29T02:19:15;3.20;;;2.13;;
7929;SDS011;4010;42.698;23.124;2022-10-29T02:21:42;3.43;;;2.00;;
7929;SDS011;4010;42.698;23.124;2022-10-29T02:24:09;2.40;;;2.20;;
7929;SDS011;4010;42.698;23.124;2022-10-29T02:26:36;2.43;;;1.87;;
7929;SDS011;4010;42.698;23.124;2022-10-29T02:29:03;2.50;;;1.87;;
7929;SDS011;4010;42.698;23.124;2022-10-29T02:31:29;3.47;;;2.23;;
7929;SDS011;4010;42.698;23.124;2022-10-29T02:33:57;3.13;;;1.93;;
7929;SDS011;4010;42.698;23.124;2022-10-29T02:36:24;3.07;;;2.60;;
7929;SDS011;4010;42.698;23.124;2022-10-29T02:38:51;3.40;;;2.37;;
7929;SDS011;4010;42.698;23.124;2022-10-29T02:41:17;2.87;;;2.40;;
7929;SDS011;4010;42.698;23.124;2022-10-29T02:43:44;2.43;;;2.07;;
7929;SDS011;4010;42.698;23.124;2022-10-29T02:46:12;2.60;;;2.00;;
7929;SDS011;4010;42.698;23.124;2022-10-29T02:48:39;3.83;;;2.17;;
7929;SDS011;4010;42.698;23.124;2022-10-29T02:51:08;2.67;;;1.97;;
7929;SDS011;4010;42.698;23.124;2022-10-29T02:53:35;3.50;;;2.43;;
7929;SDS011;4010;42.698;23.124;2022-10-29T02:56:02;3.13;;;2.33;;
7929;SDS011;4010;42.698;23.124;2022-10-29T02:58:29;2.83;;;2.37;;
7929;SDS011;4010;42.698;23.124;2022-10-29T03:00:56;4.83;;;2.70;;
7929;SDS011;4010;42.698;23.124;2022-10-29T03:03:23;3.77;;;2.47;;
7929;SDS011;4010;42.698;23.124;2022-10-29T03:05:50;2.77;;;2.03;;
7929;SDS011;4010;42.698;23.124;2022-10-29T03:08:18;2.43;;;1.93;;
7929;SDS011;4010;42.698;23.124;2022-10-29T03:10:45;3.03;;;2.33;;
7929;SDS011;4010;42.698;23.124;2022-10-29T03:13:11;2.50;;;1.97;;
7929;SDS011;4010;42.698;23.124;2022-10-29T03:15:41;3.27;;;2.40;;
7929;SDS011;4010;42.698;23.124;2022-10-29T03:18:08;2.63;;;1.97;;
7929;SDS011;4010;42.698;23.124;2022-10-29T03:20:35;2.40;;;2.10;;
7929;SDS011;4010;42.698;23.124;2022-10-29T03:23:02;3.23;;;1.80;;
7929;SDS011;4010;42.698;23.124;2022-10-29T03:25:30;5.50;;;4.07;;
7929;SDS011;4010;42.698;23.124;2022-10-29T03:27:57;5.23;;;3.43;;
7929;SDS011;4010;42.698;23.124;2022-10-29T03:30:23;3.10;;;2.70;;
7929;SDS011;4010;42.698;23.124;2022-10-29T03:32:50;2.20;;;2.00;;
7929;SDS011;4010;42.698;23.124;2022-10-29T03:35:17;5.33;;;2.60;;
7929;SDS011;4010;42.698;23.124;2022-10-29T03:37:44;2.00;;;1.80;;
7929;SDS011;4010;42.698;23.124;2022-10-29T03:40:14;2.10;;;1.83;;
7929;SDS011;4010;42.698;23.124;2022-10-29T03:42:42;4.13;;;2.37;;
7929;SDS011;4010;42.698;23.124;2022-10-29T03:45:09;4.10;;;2.40;;
7929;SDS011;4010;42.698;23.124;2022-10-29T03:47:36;5.40;;;2.90;;
7929;SDS011;4010;42.698;23.124;2022-10-29T03:50:03;4.10;;;2.30;;
7929;SDS011;4010;42.698;23.124;2022-10-29T03:52:31;3.30;;;2.30;;
7929;SDS011;4010;42.698;23.124;2022-10-29T03:54:57;3.30;;;2.30;;
7929;SDS011;4010;42.698;23.124;2022-10-29T03:57:24;4.60;;;2.50;;
7929;SDS011;4010;42.698;23.124;2022-10-29T03:59:52;4.43;;;2.30;;
7929;SDS011;4010;42.698;23.124;2022-10-29T04:02:20;3.43;;;2.30;;
7929;SDS011;4010;42.698;23.124;2022-10-29T04:04:47;5.27;;;2.13;;
7929;SDS011;4010;42.698;23.124;2022-10-29T04:07:13;3.37;;;2.20;;
7929;SDS011;4010;42.698;23.124;2022-10-29T04:09:40;4.23;;;2.13;;
7929;SDS011;4010;42.698;23.124;2022-10-29T04:12:07;2.90;;;2.30;;
7929;SDS011;4010;42.698;23.124;2022-10-29T04:14:34;3.23;;;2.10;;
7929;SDS011;4010;42.698;23.124;2022-10-29T04:17:02;3.10;;;2.20;;
7929;SDS011;4010;42.698;23.124;2022-10-29T04:19:29;4.47;;;2.00;;
7929;SDS011;4010;42.698;23.124;2022-10-29T04:21:55;3.50;;;2.73;;
7929;SDS011;4010;42.698;23.124;2022-10-29T04:24:22;5.00;;;2.10;;
7929;SDS011;4010;42.698;23.124;2022-10-29T04:26:49;3.60;;;2.60;;
7929;SDS011;4010;42.698;23.124;2022-10-29T04:29:15;5.90;;;2.30;;
7929;SDS011;4010;42.698;23.124;2022-10-29T04:31:42;2.73;;;2.10;;
7929;SDS011;4010;42.698;23.124;2022-10-29T04:34:10;2.20;;;2.00;;
7929;SDS011;4010;42.698;23.124;2022-10-29T04:36:37;3.87;;;2.37;;
7929;SDS011;4010;42.698;23.124;2022-10-29T04:39:03;5.20;;;2.30;;
7929;SDS011;4010;42.698;23.124;2022-10-29T04:41:30;3.90;;;2.00;;
7929;SDS011;4010;42.698;23.124;2022-10-29T04:43:57;3.30;;;2.30;;
7929;SDS011;4010;42.698;23.124;2022-10-29T04:46:24;2.50;;;2.20;;
7929;SDS011;4010;42.698;23.124;2022-10-29T04:48:50;2.47;;;2.27;;
7929;SDS011;4010;42.698;23.124;2022-10-29T04:51:19;3.17;;;2.30;;
7929;SDS011;4010;42.698;23.124;2022-10-29T04:53:47;4.57;;;2.43;;
7929;SDS011;4010;42.698;23.124;2022-10-29T04:56:14;2.33;;;2.03;;
7929;SDS011;4010;42.698;23.124;2022-10-29T04:58:41;4.43;;;2.70;;
7929;SDS011;4010;42.698;23.124;2022-10-29T05:01:07;3.97;;;2.63;;
7929;SDS011;4010;42.698;23.124;2022-10-29T05:03:34;3.83;;;2.17;;
7929;SDS011;4010;42.698;23.124;2022-10-29T05:06:01;2.60;;;2.40;;
7929;SDS011;4010;42.698;23.124;2022-10-29T05:08:30;8.93;;;2.20;;
7929;SDS011;4010;42.698;23.124;2022-10-29T05:10:59;4.20;;;2.27;;
7929;SDS011;4010;42.698;23.124;2022-10-29T05:13:27;3.17;;;2.43;;
7929;SDS011;4010;42.698;23.124;2022-10-29T05:15:53;3.93;;;2.40;;
7929;SDS011;4010;42.698;23.124;2022-10-29T05:18:20;3.20;;;2.57;;
7929;SDS011;4010;42.698;23.124;2022-10-29T05:20:46;6.77;;;3.00;;
7929;SDS011;4010;42.698;23.124;2022-10-29T05:23:13;4.03;;;2.97;;
7929;SDS011;4010;42.698;23.124;2022-10-29T05:25:41;4.60;;;3.13;;
7929;SDS011;4010;42.698;23.124;2022-10-29T05:28:11;7.73;;;2.43;;
7929;SDS011;4010;42.698;23.124;2022-10-29T05:30:39;4.23;;;2.97;;
7929;SDS011;4010;42.698;23.124;2022-10-29T05:33:08;4.90;;;3.20;;
7929;SDS011;4010;42.698;23.124;2022-10-29T05:35:36;8.60;;;3.13;;
7929;SDS011;4010;42.698;23.124;2022-10-29T05:38:03;4.73;;;2.90;;
7929;SDS011;4010;42.698;23.124;2022-10-29T05:40:30;3.37;;;2.80;;
7929;SDS011;4010;42.698;23.124;2022-10-29T05:42:58;3.87;;;3.00;;
7929;SDS011;4010;42.698;23.124;2022-10-29T05:45:25;3.13;;;2.60;;
7929;SDS011;4010;42.698;23.124;2022-10-29T05:47:54;3.00;;;2.70;;
7929;SDS011;4010;42.698;23.124;2022-10-29T05:50:21;6.17;;;3.73;;
7929;SDS011;4010;42.698;23.124;2022-10-29T05:52:53;4.70;;;3.27;;
7929;SDS011;4010;42.698;23.124;2022-10-29T05:55:20;4.90;;;3.87;;
7929;SDS011;4010;42.698;23.124;2022-10-29T05:57:47;4.20;;;3.30;;
7929;SDS011;4010;42.698;23.124;2022-10-29T06:00:15;3.97;;;3.03;;
7929;SDS011;4010;42.698;23.124;2022-10-29T06:02:42;4.17;;;2.97;;
7929;SDS011;4010;42.698;23.124;2022-10-29T06:05:09;3.83;;;2.97;;
7929;SDS011;4010;42.698;23.124;2022-10-29T06:07:36;7.47;;;3.73;;
7929;SDS011;4010;42.698;23.124;2022-10-29T06:10:03;4.73;;;3.43;;
7929;SDS011;4010;42.698;23.124;2022-10-29T06:12:30;2.90;;;2.60;;
7929;SDS011;4010;42.698;23.124;2022-10-29T06:14:58;4.13;;;3.50;;
7929;SDS011;4010;42.698;23.124;2022-10-29T06:17:26;3.53;;;2.60;;
7929;SDS011;4010;42.698;23.124;2022-10-29T06:19:52;3.50;;;2.87;;
7929;SDS011;4010;42.698;23.124;2022-10-29T06:22:19;4.03;;;3.13;;
7929;SDS011;4010;42.698;23.124;2022-10-29T06:24:46;4.37;;;3.17;;
7929;SDS011;4010;42.698;23.124;2022-10-29T06:27:12;3.40;;;3.10;;
7929;SDS011;4010;42.698;23.124;2022-10-29T06:29:39;5.80;;;3.10;;
7929;SDS011;4010;42.698;23.124;2022-10-29T06:32:06;4.53;;;3.30;;
7929;SDS011;4010;42.698;23.124;2022-10-29T06:34:34;4.43;;;2.80;;
7929;SDS011;4010;42.698;23.124;2022-10-29T06:37:01;3.37;;;3.07;;
7929;SDS011;4010;42.698;23.124;2022-10-29T06:39:27;4.10;;;2.87;;
7929;SDS011;4010;42.698;23.124;2022-10-29T06:41:54;3.83;;;3.20;;
7929;SDS011;4010;42.698;23.124;2022-10-29T06:44:21;3.27;;;2.97;;
7929;SDS011;4010;42.698;23.124;2022-10-29T06:46:47;3.90;;;3.23;;
7929;SDS011;4010;42.698;23.124;2022-10-29T06:49:14;2.97;;;2.67;;
7929;SDS011;4010;42.698;23.124;2022-10-29T06:51:42;4.30;;;3.30;;
7929;SDS011;4010;42.698;23.124;2022-10-29T06:54:09;3.27;;;2.70;;
7929;SDS011;4010;42.698;23.124;2022-10-29T06:56:36;4.37;;;2.53;;
7929;SDS011;4010;42.698;23.124;2022-10-29T06:59:02;5.70;;;3.13;;
7929;SDS011;4010;42.698;23.124;2022-10-29T07:01:31;4.23;;;2.60;;
7929;SDS011;4010;42.698;23.124;2022-10-29T07:03:58;3.30;;;3.00;;
7929;SDS011;4010;42.698;23.124;2022-10-29T07:06:25;2.63;;;2.30;;
7929;SDS011;4010;42.698;23.124;2022-10-29T07:08:54;3.80;;;2.97;;
7929;SDS011;4010;42.698;23.124;2022-10-29T07:11:20;3.60;;;3.30;;
7929;SDS011;4010;42.698;23.124;2022-10-29T07:13:47;6.30;;;2.83;;
7929;SDS011;4010;42.698;23.124;2022-10-29T07:16:14;2.53;;;2.33;;
7929;SDS011;4010;42.698;23.124;2022-10-29T07:18:40;5.07;;;3.20;;
7929;SDS011;4010;42.698;23.124;2022-10-29T07:21:07;4.93;;;3.47;;
7929;SDS011;4010;42.698;23.124;2022-10-29T07:23:41;4.97;;;3.33;;
7929;SDS011;4010;42.698;23.124;2022-10-29T07:26:09;4.83;;;3.27;;
7929;SDS011;4010;42.698;23.124;2022-10-29T07:28:35;4.43;;;2.93;;
7929;SDS011;4010;42.698;23.124;2022-10-29T07:31:02;3.37;;;2.60;;
7929;SDS011;4010;42.698;23.124;2022-10-29T07:33:29;4.07;;;3.23;;
7929;SDS011;4010;42.698;23.124;2022-10-29T07:35:56;5.30;;;3.37;;
7929;SDS011;4010;42.698;23.124;2022-10-29T07:38:23;4.23;;;3.03;;
7929;SDS011;4010;42.698;23.124;2022-10-29T07:40:51;3.80;;;3.13;;
7929;SDS011;4010;42.698;23.124;2022-10-29T07:43:20;4.17;;;2.77;;
7929;SDS011;4010;42.698;23.124;2022-10-29T07:45:47;4.13;;;3.07;;
7929;SDS011;4010;42.698;23.124;2022-10-29T07:48:15;4.23;;;3.10;;
7929;SDS011;4010;42.698;23.124;2022-10-29T07:50:43;4.27;;;3.17;;
7929;SDS011;4010;42.698;23.124;2022-10-29T07:53:10;3.87;;;2.90;;
7929;SDS011;4010;42.698;23.124;2022-10-29T07:55:36;5.37;;;2.87;;
7929;SDS011;4010;42.698;23.124;2022-10-29T07:58:04;3.97;;;2.70;;
7929;SDS011;4010;42.698;23.124;2022-10-29T08:00:33;4.47;;;3.30;;
7929;SDS011;4010;42.698;23.124;2022-10-29T08:03:01;3.83;;;2.97;;
7929;SDS011;4010;42.698;23.124;2022-10-29T08:05:28;3.33;;;3.00;;
7929;SDS011;4010;42.698;23.124;2022-10-29T08:07:55;3.50;;;3.00;;
7929;SDS011;4010;42.698;23.124;2022-10-29T08:10:23;3.00;;;2.70;;
7929;SDS011;4010;42.698;23.124;2022-10-29T08:12:50;8.47;;;3.00;;
7929;SDS011;4010;42.698;23.124;2022-10-29T08:15:18;6.77;;;2.90;;
7929;SDS011;4010;42.698;23.124;2022-10-29T08:17:46;3.37;;;2.87;;
7929;SDS011;4010;42.698;23.124;2022-10-29T08:20:14;6.20;;;3.20;;
7929;SDS011;4010;42.698;23.124;2022-10-29T08:22:41;3.13;;;2.80;;
7929;SDS011;4010;42.698;23.124;2022-10-29T08:25:08;3.97;;;2.97;;
7929;SDS011;4010;42.698;23.124;2022-10-29T08:27:35;5.90;;;3.30;;
7929;SDS011;4010;42.698;23.124;2022-10-29T08:30:02;6.40;;;3.67;;
7929;SDS011;4010;42.698;23.124;2022-10-29T08:32:29;5.03;;;3.27;;
7929;SDS011;4010;42.698;23.124;2022-10-29T08:34:57;3.50;;;3.20;;
7929;SDS011;4010;42.698;23.124;2022-10-29T08:37:24;4.13;;;3.60;;
7929;SDS011;4010;42.698;23.124;2022-10-29T08:39:50;4.78;;;4.07;;
7929;SDS011;4010;42.698;23.124;2022-10-29T08:42:20;4.17;;;3.70;;
7929;SDS011;4010;42.698;23.124;2022-10-29T08:45:07;4.60;;;3.53;;
7929;SDS011;4010;42.698;23.124;2022-10-29T08:47:48;4.73;;;3.30;;
7929;SDS011;4010;42.698;23.124;2022-10-29T08:50:28;5.17;;;3.47;;
7929;SDS011;4010;42.698;23.124;2022-10-29T08:52:58;4.57;;;3.13;;
7929;SDS011;4010;42.698;23.124;2022-10-29T08:55:29;3.43;;;2.97;;
7929;SDS011;4010;42.698;23.124;2022-10-29T08:58:02;5.10;;;2.90;;
7929;SDS011;4010;42.698;23.124;2022-10-29T09:00:37;4.10;;;3.07;;
7929;SDS011;4010;42.698;23.124;2022-10-29T09:03:08;5.30;;;3.23;;
7929;SDS011;4010;42.698;23.124;2022-10-29T09:05:43;4.50;;;3.03;;
7929;SDS011;4010;42.698;23.124;2022-10-29T09:08:20;4.10;;;2.97;;
7929;SDS011;4010;42.698;23.124;2022-10-29T09:10:55;3.73;;;2.83;;
7929;SDS011;4010;42.698;23.124;2022-10-29T09:13:28;4.70;;;2.90;;
7929;SDS011;4010;42.698;23.124;2022-10-29T09:16:09;3.67;;;3.13;;
7929;SDS011;4010;42.698;23.124;2022-10-29T09:21:38;3.40;;;2.73;;
7929;SDS011;4010;42.698;23.124;2022-10-29T09:24:17;3.80;;;2.90;;
7929;SDS011;4010;42.698;23.124;2022-10-29T09:26:55;3.97;;;2.03;;
7929;SDS011;4010;42.698;23.124;2022-10-29T09:29:34;1.63;;;1.53;;
7929;SDS011;4010;42.698;23.124;2022-10-29T09:32:12;2.80;;;2.50;;
7929;SDS011;4010;42.698;23.124;2022-10-29T09:34:46;2.07;;;1.80;;
7929;SDS011;4010;42.698;23.124;2022-10-29T09:37:17;2.10;;;1.90;;
7929;SDS011;4010;42.698;23.124;2022-10-29T09:39:47;2.30;;;2.10;;
7929;SDS011;4010;42.698;23.124;2022-10-29T09:42:15;2.53;;;1.30;;
7929;SDS011;4010;42.698;23.124;2022-10-29T09:44:48;1.50;;;1.40;;
7929;SDS011;4010;42.698;23.124;2022-10-29T09:47:20;2.90;;;1.77;;
7929;SDS011;4010;42.698;23.124;2022-10-29T09:49:58;4.90;;;2.20;;
7929;SDS011;4010;42.698;23.124;2022-10-29T09:52:38;2.93;;;1.70;;
7929;SDS011;4010;42.698;23.124;2022-10-29T09:55:06;2.07;;;1.87;;
7929;SDS011;4010;42.698;23.124;2022-10-29T09:57:42;2.27;;;2.07;;
7929;SDS011;4010;42.698;23.124;2022-10-29T10:00:13;1.80;;;1.70;;
7929;SDS011;4010;42.698;23.124;2022-10-29T10:02:44;1.93;;;1.73;;
7929;SDS011;4010;42.698;23.124;2022-10-29T10:05:18;4.17;;;2.20;;
7929;SDS011;4010;42.698;23.124;2022-10-29T10:08:02;2.90;;;2.60;;
7929;SDS011;4010;42.698;23.124;2022-10-29T10:10:31;3.20;;;2.50;;
7929;SDS011;4010;42.698;23.124;2022-10-29T10:13:00;2.67;;;2.20;;
7929;SDS011;4010;42.698;23.124;2022-10-29T10:15:29;5.37;;;2.00;;
7929;SDS011;4010;42.698;23.124;2022-10-29T10:17:59;3.60;;;2.40;;
7929;SDS011;4010;42.698;23.124;2022-10-29T10:20:28;4.22;;;2.58;;
7929;SDS011;4010;42.698;23.124;2022-10-29T10:22:59;2.67;;;2.13;;
7929;SDS011;4010;42.698;23.124;2022-10-29T10:25:31;2.77;;;2.10;;
7929;SDS011;4010;42.698;23.124;2022-10-29T10:28:02;2.63;;;2.13;;
7929;SDS011;4010;42.698;23.124;2022-10-29T10:30:29;2.50;;;2.00;;
7929;SDS011;4010;42.698;23.124;2022-10-29T10:32:59;2.67;;;2.07;;
7929;SDS011;4010;42.698;23.124;2022-10-29T10:35:37;27.10;;;13.67;;
7929;SDS011;4010;42.698;23.124;2022-10-29T10:38:08;21.33;;;12.00;;
7929;SDS011;4010;42.698;23.124;2022-10-29T10:40:35;3.10;;;2.20;;
7929;SDS011;4010;42.698;23.124;2022-10-29T10:43:02;3.93;;;2.00;;
7929;SDS011;4010;42.698;23.124;2022-10-29T10:45:31;2.73;;;2.20;;
7929;SDS011;4010;42.698;23.124;2022-10-29T10:48:04;1.87;;;1.70;;
7929;SDS011;4010;42.698;23.124;2022-10-29T10:50:35;3.83;;;2.30;;
7929;SDS011;4010;42.698;23.124;2022-10-29T10:53:03;2.47;;;2.00;;
7929;SDS011;4010;42.698;23.124;2022-10-29T10:55:33;2.17;;;1.97;;
7929;SDS011;4010;42.698;23.124;2022-10-29T10:58:04;2.13;;;1.97;;
7929;SDS011;4010;42.698;23.124;2022-10-29T11:00:38;2.57;;;2.10;;
7929;SDS011;4010;42.698;23.124;2022-10-29T11:03:09;2.20;;;2.00;;
7929;SDS011;4010;42.698;23.124;2022-10-29T11:05:41;2.50;;;1.93;;
7929;SDS011;4010;42.698;23.124;2022-10-29T11:08:18;3.27;;;1.90;;
7929;SDS011;4010;42.698;23.124;2022-10-29T11:10:51;4.07;;;2.10;;
7929;SDS011;4010;42.698;23.124;2022-10-29T11:13:20;9.10;;;4.57;;
7929;SDS011;4010;42.698;23.124;2022-10-29T11:15:49;6.67;;;4.17;;
7929;SDS011;4010;42.698;23.124;2022-10-29T11:18:23;3.53;;;2.00;;
7929;SDS011;4010;42.698;23.124;2022-10-29T11:20:59;2.33;;;1.90;;
7929;SDS011;4010;42.698;23.124;2022-10-29T11:23:34;2.83;;;2.20;;
7929;SDS011;4010;42.698;23.124;2022-10-29T11:26:11;2.63;;;1.83;;
7929;SDS011;4010;42.698;23.124;2022-10-29T11:28:44;3.03;;;1.73;;
7929;SDS011;4010;42.698;23.124;2022-10-29T11:31:17;3.17;;;1.50;;
7929;SDS011;4010;42.698;23.124;2022-10-29T11:33:49;1.70;;;1.60;;
7929;SDS011;4010;42.698;23.124;2022-10-29T11:36:22;2.83;;;1.90;;
7929;SDS011;4010;42.698;23.124;2022-10-29T11:38:51;2.27;;;1.70;;
7929;SDS011;4010;42.698;23.124;2022-10-29T11:41:25;4.03;;;1.63;;
7929;SDS011;4010;42.698;23.124;2022-10-29T11:43:59;1.60;;;1.50;;
7929;SDS011;4010;42.698;23.124;2022-10-29T11:46:31;1.67;;;1.57;;
7929;SDS011;4010;42.698;23.124;2022-10-29T11:49:07;2.20;;;1.90;;
7929;SDS011;4010;42.698;23.124;2022-10-29T11:51:46;3.27;;;2.70;;
7929;SDS011;4010;42.698;23.124;2022-10-29T11:54:27;2.30;;;1.53;;
7929;SDS011;4010;42.698;23.124;2022-10-29T11:57:10;1.70;;;1.50;;
7929;SDS011;4010;42.698;23.124;2022-10-29T11:59:48;1.57;;;1.37;;
7929;SDS011;4010;42.698;23.124;2022-10-29T12:02:25;2.23;;;1.60;;
7929;SDS011;4010;42.698;23.124;2022-10-29T12:05:04;1.70;;;1.60;;
7929;SDS011;4010;42.698;23.124;2022-10-29T12:07:43;1.80;;;1.40;;
7929;SDS011;4010;42.698;23.124;2022-10-29T12:13:17;1.67;;;1.50;;
7929;SDS011;4010;42.698;23.124;2022-10-29T12:15:54;4.23;;;1.60;;
7929;SDS011;4010;42.698;23.124;2022-10-29T12:18:32;1.57;;;1.47;;
7929;SDS011;4010;42.698;23.124;2022-10-29T12:21:06;1.97;;;1.67;;
7929;SDS011;4010;42.698;23.124;2022-10-29T12:23:45;1.60;;;1.50;;
7929;SDS011;4010;42.698;23.124;2022-10-29T12:26:23;1.97;;;1.50;;
7929;SDS011;4010;42.698;23.124;2022-10-29T12:28:57;2.10;;;2.00;;
7929;SDS011;4010;42.698;23.124;2022-10-29T12:31:35;4.03;;;1.77;;
7929;SDS011;4010;42.698;23.124;2022-10-29T12:34:11;1.80;;;1.50;;
7929;SDS011;4010;42.698;23.124;2022-10-29T12:36:44;4.67;;;1.67;;
7929;SDS011;4010;42.698;23.124;2022-10-29T12:39:21;1.90;;;1.80;;
7929;SDS011;4010;42.698;23.124;2022-10-29T12:41:56;2.97;;;1.67;;
7929;SDS011;4010;42.698;23.124;2022-10-29T12:44:29;2.20;;;1.73;;
7929;SDS011;4010;42.698;23.124;2022-10-29T12:47:04;1.70;;;1.60;;
7929;SDS011;4010;42.698;23.124;2022-10-29T12:49:42;1.63;;;1.40;;
7929;SDS011;4010;42.698;23.124;2022-10-29T12:52:20;1.77;;;1.60;;
7929;SDS011;4010;42.698;23.124;2022-10-29T12:54:55;2.00;;;1.50;;
7929;SDS011;4010;42.698;23.124;2022-10-29T12:57:28;2.17;;;1.73;;
7929;SDS011;4010;42.698;23.124;2022-10-29T12:59:58;3.23;;;2.10;;
7929;SDS011;4010;42.698;23.124;2022-10-29T13:02:57;2.73;;;2.53;;
7929;SDS011;4010;42.698;23.124;2022-10-29T13:05:35;2.93;;;2.47;;
7929;SDS011;4010;42.698;23.124;2022-10-29T13:08:08;2.00;;;1.87;;
7929;SDS011;4010;42.698;23.124;2022-10-29T13:10:47;1.73;;;1.60;;
7929;SDS011;4010;42.698;23.124;2022-10-29T13:13:19;6.10;;;2.37;;
7929;SDS011;4010;42.698;23.124;2022-10-29T13:15:59;1.60;;;1.50;;
7929;SDS011;4010;42.698;23.124;2022-10-29T13:18:30;2.00;;;1.80;;
7929;SDS011;4010;42.698;23.124;2022-10-29T13:21:11;3.83;;;1.60;;
7929;SDS011;4010;42.698;23.124;2022-10-29T13:23:37;3.93;;;2.30;;
7929;SDS011;4010;42.698;23.124;2022-10-29T13:26:04;2.60;;;1.93;;
7929;SDS011;4010;42.698;23.124;2022-10-29T13:28:50;2.47;;;1.67;;
7929;SDS011;4010;42.698;23.124;2022-10-29T13:43:26;4.10;;;2.03;;
7929;SDS011;4010;42.698;23.124;2022-10-29T13:46:02;3.67;;;1.90;;
7929;SDS011;4010;42.698;23.124;2022-10-29T13:48:48;2.20;;;2.00;;
7929;SDS011;4010;42.698;23.124;2022-10-29T13:51:18;2.03;;;1.83;;
7929;SDS011;4010;42.698;23.124;2022-10-29T13:53:53;2.20;;;2.00;;
7929;SDS011;4010;42.698;23.124;2022-10-29T13:56:26;2.63;;;2.00;;
7929;SDS011;4010;42.698;23.124;2022-10-29T13:58:57;3.37;;;1.90;;
7929;SDS011;4010;42.698;23.124;2022-10-29T14:01:27;2.43;;;2.03;;
7929;SDS011;4010;42.698;23.124;2022-10-29T14:03:59;4.47;;;1.60;;
7929;SDS011;4010;42.698;23.124;2022-10-29T14:06:32;3.03;;;2.00;;
7929;SDS011;4010;42.698;23.124;2022-10-29T14:09:05;3.73;;;1.80;;
7929;SDS011;4010;42.698;23.124;2022-10-29T14:11:39;1.80;;;1.70;;
7929;SDS011;4010;42.698;23.124;2022-10-29T14:14:17;3.40;;;1.70;;
7929;SDS011;4010;42.698;23.124;2022-10-29T14:16:49;2.63;;;1.73;;
7929;SDS011;4010;42.698;23.124;2022-10-29T14:19:19;3.70;;;1.73;;
7929;SDS011;4010;42.698;23.124;2022-10-29T14:21:47;3.10;;;1.80;;
7929;SDS011;4010;42.698;23.124;2022-10-29T14:24:14;3.60;;;1.93;;
7929;SDS011;4010;42.698;23.124;2022-10-29T14:26:42;1.57;;;1.47;;
7929;SDS011;4010;42.698;23.124;2022-10-29T14:29:13;2.53;;;1.70;;
7929;SDS011;4010;42.698;23.124;2022-10-29T14:31:44;2.87;;;1.90;;
7929;SDS011;4010;42.698;23.124;2022-10-29T14:34:22;2.77;;;2.10;;
7929;SDS011;4010;42.698;23.124;2022-10-29T14:36:51;2.67;;;2.23;;
7929;SDS011;4010;42.698;23.124;2022-10-29T14:39:21;2.10;;;1.80;;
7929;SDS011;4010;42.698;23.124;2022-10-29T14:41:51;7.07;;;3.77;;
7929;SDS011;4010;42.698;23.124;2022-10-29T14:44:19;4.70;;;3.10;;
7929;SDS011;4010;42.698;23.124;2022-10-29T14:46:59;19.40;;;9.73;;
7929;SDS011;4010;42.698;23.124;2022-10-29T14:49:31;40.70;;;18.53;;
7929;SDS011;4010;42.698;23.124;2022-10-29T14:52:01;56.40;;;25.30;;
7929;SDS011;4010;42.698;23.124;2022-10-29T14:54:31;62.77;;;27.70;;
7929;SDS011;4010;42.698;23.124;2022-10-29T14:57:02;92.63;;;41.77;;
7929;SDS011;4010;42.698;23.124;2022-10-29T14:59:32;95.17;;;40.20;;
7929;SDS011;4010;42.698;23.124;2022-10-29T15:02:01;67.70;;;32.80;;
7929;SDS011;4010;42.698;23.124;2022-10-29T15:04:44;54.77;;;26.53;;
7929;SDS011;4010;42.698;23.124;2022-10-29T15:07:14;65.00;;;27.93;;
7929;SDS011;4010;42.698;23.124;2022-10-29T15:09:49;66.93;;;31.17;;
7929;SDS011;4010;42.698;23.124;2022-10-29T15:12:31;72.70;;;30.30;;
7929;SDS011;4010;42.698;23.124;2022-10-29T15:15:06;57.07;;;25.17;;
7929;SDS011;4010;42.698;23.124;2022-10-29T15:17:34;59.13;;;21.57;;
7929;SDS011;4010;42.698;23.124;2022-10-29T15:20:17;49.57;;;19.00;;
7929;SDS011;4010;42.698;23.124;2022-10-29T15:22:46;32.63;;;13.97;;
7929;SDS011;4010;42.698;23.124;2022-10-29T15:25:18;35.67;;;16.07;;
7929;SDS011;4010;42.698;23.124;2022-10-29T15:27:50;37.30;;;13.83;;
7929;SDS011;4010;42.698;23.124;2022-10-29T15:30:18;17.43;;;9.13;;
7929;SDS011;4010;42.698;23.124;2022-10-29T15:32:46;16.47;;;6.83;;
7929;SDS011;4010;42.698;23.124;2022-10-29T15:35:18;14.17;;;6.20;;
7929;SDS011;4010;42.698;23.124;2022-10-29T15:37:47;9.17;;;5.63;;